Henrik Krøyer Holme

KL  EN  DA
ASIAQ
Weather Now GREENLAND SURVEY
Updated [WGT/WGST] Temperature [°C] Wind [m/s] Air pressure [hPa] Relative humidity [%] Precipitation [mm]
Present Wind chill Speed Max
17.04 23:00-11,3-21,99,8 ⇓11,3100586n/a
17.04 22:00-11,8-22,69,8 ⇓11,8100685n/a
17.04 21:00-12,4-22,07,2 ⇓9,3100884n/a
17.04 20:00n/an/an/an/an/an/an/a
17.04 19:00-13,0-23,38,2 ⇓10,3101175n/a
17.04 18:00-12,9-22,67,2 ⇓9,3101378n/a
17.04 17:00-13,2-22,36,2 ⇓7,2101476n/a
17.04 16:00-13,5-20,43,6 ⇓4,1101670n/a
17.04 15:00-16,30,01,0 ⇘2,1101762n/a
17.04 14:00-17,8-23,42,1 ⇘2,6101965n/a
17.04 13:00-18,70,01,0 ⇒1,5102069n/a
17.04 12:00-18,90,01,0 ⇒1,5102267n/a
17.04 11:00-19,00,01,0 ⇗1,5102363n/a
17.04 10:00-18,80,01,0 ⇗1,5102461n/a
17.04 09:00-20,1-24,71,5 ⇒2,6102566n/a
17.04 08:00-20,3-27,22,6 ⇗3,6102665n/a
17.04 07:00-22,1-30,93,6 ⇗4,1102769n/a
17.04 06:00-22,2-30,33,1 ⇗3,6102866n/a
17.04 05:00-21,2-28,32,6 ⇗3,6102861n/a
17.04 04:00-21,0-28,12,6 ⇗2,6102964n/a
17.04 03:00-20,8-27,82,6 ⇒2,6102965n/a
17.04 02:00-20,9-25,61,5 ⇒2,1103064n/a
17.04 01:00-21,4-27,62,1 ⇒2,6103066n/a
17.04 00:00-21,4-28,52,6 ⇗3,1103166n/a
16.04 23:00-22,5-30,73,1 ⇗3,6103167n/a
Position: (80.649444444,-13.7119444444)

[Back]